createdAt,value
2018-12-24T00:02:44.374Z,9.90
2018-12-24T00:07:50.143Z,9.90
2018-12-24T00:12:55.887Z,9.90
2018-12-24T00:18:03.290Z,9.90
2018-12-24T00:23:11.060Z,9.90
2018-12-24T00:28:19.502Z,9.90
2018-12-24T00:33:26.037Z,9.90
2018-12-24T00:38:31.845Z,9.90
2018-12-24T00:43:37.595Z,9.90
2018-12-24T00:48:43.456Z,10.00
2018-12-24T00:53:49.167Z,10.00
2018-12-24T00:58:55.082Z,10.10
2018-12-24T01:04:00.929Z,10.10
2018-12-24T01:09:07.610Z,10.20
2018-12-24T01:14:13.595Z,10.20
2018-12-24T01:19:19.884Z,10.20
2018-12-24T01:24:26.283Z,10.40
2018-12-24T01:29:32.121Z,10.40
2018-12-24T01:34:38.025Z,10.40
2018-12-24T01:39:44.692Z,10.40
2018-12-24T01:44:50.660Z,10.40
2018-12-24T01:49:58.370Z,10.40
2018-12-24T01:55:04.271Z,10.30
2018-12-24T02:00:10.050Z,10.30
2018-12-24T02:05:16.055Z,10.20
2018-12-24T02:10:21.880Z,9.70
2018-12-24T02:15:27.926Z,8.50
2018-12-24T02:20:33.830Z,7.80
2018-12-24T02:25:39.867Z,7.60
2018-12-24T02:30:45.724Z,7.50
2018-12-24T02:35:51.623Z,7.10
2018-12-24T02:40:57.499Z,6.90
2018-12-24T02:46:03.394Z,6.80
2018-12-24T02:51:09.276Z,6.70
2018-12-24T02:56:15.235Z,6.40
2018-12-24T03:01:20.982Z,6.40
2018-12-24T03:06:27.273Z,6.30
2018-12-24T03:11:33.102Z,6.10
2018-12-24T03:16:38.869Z,6.10
2018-12-24T03:21:44.729Z,6.00
2018-12-24T03:26:50.655Z,5.90
2018-12-24T03:31:56.450Z,5.90
2018-12-24T03:37:02.226Z,5.80
2018-12-24T03:42:07.961Z,5.70
2018-12-24T03:47:13.689Z,5.60
2018-12-24T03:52:19.435Z,5.50
2018-12-24T03:57:25.181Z,5.50
2018-12-24T04:02:30.924Z,5.30
2018-12-24T04:07:36.854Z,5.20
2018-12-24T04:12:42.568Z,5.10
2018-12-24T04:17:48.353Z,5.00
2018-12-24T04:22:54.102Z,4.80
2018-12-24T04:27:59.752Z,4.70
2018-12-24T04:33:05.484Z,4.60
2018-12-24T04:38:11.220Z,4.50
2018-12-24T04:43:16.956Z,4.40
2018-12-24T04:48:22.687Z,4.40
2018-12-24T04:53:28.441Z,4.40
2018-12-24T04:58:34.183Z,4.40
2018-12-24T05:03:39.964Z,4.30
2018-12-24T05:08:45.683Z,4.30
2018-12-24T05:13:51.344Z,4.20
2018-12-24T05:18:57.103Z,4.10
2018-12-24T05:24:02.834Z,4.10
2018-12-24T05:29:47.939Z,4.00
2018-12-24T05:34:54.223Z,4.00
2018-12-24T05:39:59.526Z,4.00
2018-12-24T05:45:04.847Z,4.00
2018-12-24T05:50:10.145Z,3.90
2018-12-24T05:55:15.448Z,3.90
2018-12-24T06:00:20.758Z,3.80
2018-12-24T06:05:26.042Z,3.70
2018-12-24T06:10:31.348Z,3.60
2018-12-24T06:15:36.659Z,3.70
2018-12-24T06:20:41.883Z,3.50
2018-12-24T06:25:47.199Z,3.50
2018-12-24T06:30:52.495Z,3.50
2018-12-24T06:35:57.807Z,3.40
2018-12-24T06:41:03.114Z,3.40
2018-12-24T06:46:08.339Z,3.40
2018-12-24T06:51:13.564Z,3.30
2018-12-24T06:56:18.859Z,3.30
2018-12-24T07:01:24.152Z,3.30
2018-12-24T07:06:29.443Z,3.30
2018-12-24T07:11:34.750Z,3.30
2018-12-24T07:16:40.066Z,3.30
2018-12-24T07:21:45.367Z,3.40
2018-12-24T07:26:50.663Z,3.40
2018-12-24T07:31:55.955Z,3.50
2018-12-24T07:37:01.250Z,3.50
2018-12-24T07:42:06.552Z,3.50
2018-12-24T07:47:11.835Z,3.50
2018-12-24T07:52:17.151Z,3.60
2018-12-24T07:57:22.470Z,3.70
2018-12-24T08:02:27.783Z,3.70
2018-12-24T08:07:33.075Z,3.70
2018-12-24T08:12:38.379Z,3.80
2018-12-24T08:17:43.695Z,3.90
2018-12-24T08:22:49.011Z,3.90
2018-12-24T08:27:54.330Z,4.00
2018-12-24T08:32:59.636Z,4.00
2018-12-24T08:38:04.927Z,4.00
2018-12-24T08:43:10.239Z,4.10
2018-12-24T08:48:15.537Z,4.20
2018-12-24T08:53:20.852Z,4.20
2018-12-24T08:58:26.167Z,4.20
2018-12-24T09:03:31.486Z,4.20
2018-12-24T09:08:36.783Z,4.20
2018-12-24T09:13:42.082Z,4.30
2018-12-24T09:18:47.407Z,4.30
2018-12-24T09:23:52.723Z,4.50
2018-12-24T09:28:58.032Z,4.50
2018-12-24T09:34:03.334Z,4.50
2018-12-24T09:39:08.885Z,4.60
2018-12-24T09:44:14.839Z,4.80
2018-12-24T09:49:21.284Z,4.80
2018-12-24T09:54:27.758Z,4.90
2018-12-24T09:59:33.410Z,4.90
2018-12-24T10:04:48.816Z,5.00
2018-12-24T10:09:55.569Z,5.20
2018-12-24T10:15:08.049Z,5.30
2018-12-24T10:20:14.420Z,5.50
2018-12-24T10:25:21.357Z,5.70
2018-12-24T10:30:29.280Z,6.00
2018-12-24T10:35:39.687Z,5.90
2018-12-24T10:40:56.712Z,5.70
2018-12-24T10:46:04.893Z,5.70
2018-12-24T10:51:10.362Z,5.70
2018-12-24T10:56:15.779Z,5.70
2018-12-24T11:01:21.591Z,5.70
2018-12-24T11:06:26.896Z,6.10
2018-12-24T11:11:33.424Z,6.80
2018-12-24T11:16:39.211Z,6.50
2018-12-24T11:21:44.507Z,6.40
2018-12-24T11:26:49.819Z,6.40
2018-12-24T11:31:55.666Z,6.20
2018-12-24T11:37:00.923Z,5.70
2018-12-24T11:42:06.747Z,5.20
2018-12-24T11:47:12.239Z,5.20
2018-12-24T11:52:17.960Z,5.20
2018-12-24T11:57:23.288Z,5.20
2018-12-24T12:02:28.668Z,5.20
2018-12-24T12:07:34.003Z,4.90
2018-12-24T12:12:40.628Z,4.70
2018-12-24T12:17:46.475Z,4.50
2018-12-24T12:22:51.786Z,4.40
2018-12-24T12:27:57.473Z,4.20
2018-12-24T12:33:02.977Z,4.20
2018-12-24T12:38:08.759Z,4.30
2018-12-24T12:43:15.467Z,4.40
2018-12-24T12:48:21.395Z,4.60
2018-12-24T12:53:27.054Z,4.70
2018-12-24T12:58:32.352Z,4.90
2018-12-24T13:03:37.656Z,5.10
2018-12-24T13:08:42.956Z,5.30
2018-12-24T13:13:48.265Z,5.30
2018-12-24T13:18:53.579Z,5.30
2018-12-24T13:23:58.894Z,5.30
2018-12-24T13:29:04.300Z,5.40
2018-12-24T13:34:09.608Z,5.40
2018-12-24T13:39:14.911Z,5.50
2018-12-24T13:44:20.204Z,5.30
2018-12-24T13:49:25.507Z,5.40
2018-12-24T13:54:30.803Z,5.40
2018-12-24T13:59:36.407Z,5.40
2018-12-24T14:04:41.714Z,5.30
2018-12-24T14:09:46.999Z,5.30
2018-12-24T14:14:52.313Z,5.20
2018-12-24T14:19:57.636Z,5.00
2018-12-24T14:25:02.947Z,4.90
2018-12-24T14:30:09.927Z,4.70
2018-12-24T14:35:15.228Z,4.60
2018-12-24T14:40:20.530Z,4.50
2018-12-24T14:45:25.820Z,4.40
2018-12-24T14:50:31.115Z,4.30
2018-12-24T14:55:36.427Z,4.30
2018-12-24T15:00:41.719Z,4.30
2018-12-24T15:05:47.023Z,4.40
2018-12-24T15:10:52.320Z,4.30
2018-12-24T15:15:57.646Z,4.20
2018-12-24T15:21:02.950Z,4.20
2018-12-24T15:26:08.256Z,4.20
2018-12-24T15:31:13.551Z,4.20
2018-12-24T15:36:18.873Z,4.10
2018-12-24T15:41:24.188Z,3.90
2018-12-24T15:46:29.483Z,3.80
2018-12-24T15:51:34.767Z,3.70
2018-12-24T15:56:40.062Z,3.70
2018-12-24T16:01:45.367Z,3.80
2018-12-24T16:06:50.658Z,3.70
2018-12-24T16:11:55.884Z,3.70
2018-12-24T16:17:01.206Z,3.70
2018-12-24T16:22:06.510Z,3.80
2018-12-24T16:27:11.803Z,3.90
2018-12-24T16:32:17.099Z,3.90
2018-12-24T16:37:22.393Z,4.00
2018-12-24T16:42:27.683Z,4.00
2018-12-24T16:47:32.988Z,3.90
2018-12-24T16:52:38.287Z,3.70
2018-12-24T16:57:43.587Z,3.70
2018-12-24T17:02:48.887Z,3.60
2018-12-24T17:07:54.188Z,3.60
2018-12-24T17:12:59.485Z,3.50
2018-12-24T17:18:04.786Z,3.50
2018-12-24T17:23:10.087Z,3.50
2018-12-24T17:28:15.389Z,3.60
2018-12-24T17:33:20.684Z,3.50
2018-12-24T17:38:25.994Z,3.50
2018-12-24T17:43:31.287Z,3.50
2018-12-24T17:48:36.905Z,3.50
2018-12-24T17:53:42.206Z,3.40
2018-12-24T17:58:47.507Z,3.50
2018-12-24T18:03:52.810Z,3.50
2018-12-24T18:08:58.119Z,3.50
2018-12-24T18:14:03.441Z,3.50
2018-12-24T18:19:08.755Z,3.60
2018-12-24T18:24:14.072Z,3.60
2018-12-24T18:29:19.403Z,3.60
2018-12-24T18:34:24.760Z,3.50
2018-12-24T18:39:31.032Z,3.50
2018-12-24T18:44:36.379Z,3.40
2018-12-24T18:49:41.660Z,3.30
2018-12-24T18:54:46.976Z,3.30
2018-12-24T18:59:52.279Z,3.20
2018-12-24T19:04:58.488Z,3.20
2018-12-24T19:10:03.969Z,3.10
2018-12-24T19:15:09.337Z,3.10
2018-12-24T19:20:14.658Z,3.10
2018-12-24T19:25:20.380Z,3.20
2018-12-24T19:30:25.708Z,3.10
2018-12-24T19:35:31.032Z,3.10
2018-12-24T19:40:36.459Z,3.10
2018-12-24T19:45:41.792Z,3.10
2018-12-24T19:50:47.088Z,3.20
2018-12-24T19:55:52.419Z,3.30
2018-12-24T20:00:57.720Z,3.30
2018-12-24T20:06:03.014Z,3.40
2018-12-24T20:11:08.247Z,3.40
2018-12-24T20:16:13.474Z,3.40
2018-12-24T20:21:18.787Z,3.30
2018-12-24T20:26:24.075Z,3.30
2018-12-24T20:31:29.403Z,3.20
2018-12-24T20:36:34.643Z,3.20
2018-12-24T20:41:39.939Z,3.20
2018-12-24T20:46:45.280Z,3.20
2018-12-24T20:51:50.601Z,3.30
2018-12-24T20:56:55.914Z,3.40
2018-12-24T21:02:01.199Z,3.40
2018-12-24T21:07:06.558Z,3.40
2018-12-24T21:12:11.924Z,3.40
2018-12-24T21:17:17.241Z,3.40
2018-12-24T21:22:22.535Z,3.40
2018-12-24T21:27:27.835Z,3.30
2018-12-24T21:32:34.204Z,3.20
2018-12-24T21:37:39.507Z,3.20
2018-12-24T21:42:44.815Z,3.20
2018-12-24T21:47:50.118Z,3.20
2018-12-24T21:52:55.410Z,3.20
2018-12-24T21:58:00.639Z,3.20
2018-12-24T22:03:05.965Z,3.20
2018-12-24T22:08:11.269Z,3.20
2018-12-24T22:13:16.588Z,3.10
2018-12-24T22:18:22.013Z,3.10
2018-12-24T22:23:27.323Z,3.10
2018-12-24T22:28:32.626Z,3.10
2018-12-24T22:33:37.947Z,3.10
2018-12-24T22:38:43.262Z,3.10
2018-12-24T22:43:48.884Z,3.10
2018-12-24T22:48:54.196Z,3.10
2018-12-24T22:53:59.520Z,3.10
2018-12-24T22:59:04.855Z,3.10
2018-12-24T23:04:10.167Z,3.10
2018-12-24T23:09:15.823Z,3.10
2018-12-24T23:14:21.164Z,3.10
2018-12-24T23:19:26.484Z,3.10
2018-12-24T23:24:31.787Z,3.10
2018-12-24T23:29:37.083Z,3.10
2018-12-24T23:34:42.379Z,3.10
2018-12-24T23:39:47.716Z,3.10
2018-12-24T23:44:53.027Z,3.10
2018-12-24T23:49:58.354Z,3.00
2018-12-24T23:55:03.595Z,3.00
